Station Historical Data
Daily Summary for November 10, 2017 Units:  Metric    English   Both
« Previous Day
Next Day »
Daily Weekly Monthly Yearly Custom
  High: Low: Average:
Temperature: 16.4 °C 4.8 °C 9.3 °C
Dew Point: 6.6 °C 2.9 °C 4.8 °C
Humidity: 94% 44% 76%
Wind Speed: 6.6km/h 0km/h 0.6km/h
Wind Gust: 8km/h - -
Wind- - SSW
Pressure: 1024.9 hPa 1020.2 hPa -
Precipitation: 0 mm    
Historical Graphs
 
 
Tabular Data for November 10, 2017
Time Temperature Dew Point Pressure Wind Wind Speed Wind Gust Humidity Rainfall Rate (Hourly) Conditions
00:00 7.4 °C 6.5 °C 1020.9 hPa Calm     94% 0 mm RA
00:05 7.4 °C 6.5 °C 1020.5 hPa Calm     94% 0 mm CLR
00:10 7.4 °C 6.5 °C 1020.5 hPa Calm     94% 0 mm CLR
00:15 7.4 °C 6.5 °C 1020.5 hPa Calm     94% 0 mm CLR
00:20 7.4 °C 6.5 °C 1020.5 hPa Calm     94% 0 mm CLR
00:25 7.4 °C 6.6 °C 1020.5 hPa Calm     94% 0 mm CLR
00:30 7.4 °C 6.6 °C 1020.5 hPa Calm     94% 0 mm CLR
00:35 7.4 °C 6.5 °C 1020.5 hPa Calm     94% 0 mm CLR
00:40 7.3 °C 6.4 °C 1020.5 hPa Calm     94% 0 mm CLR
00:45 7.3 °C 6.4 °C 1020.5 hPa Calm     94% 0 mm CLR
00:50 7.3 °C 6.4 °C 1020.5 hPa Calm     94% 0 mm CLR
00:55 7.3 °C 6.4 °C 1020.5 hPa Calm     94% 0 mm CLR
01:00 7.2 °C 6.3 °C 1020.5 hPa Calm     94% 0 mm CLR
01:05 7.2 °C 6.3 °C 1020.5 hPa Calm     94% 0 mm CLR
01:10 7.1 °C 6.2 °C 1020.5 hPa Calm     94% 0 mm CLR
01:15 7.1 °C 6.2 °C 1020.5 hPa Calm     94% 0 mm CLR
01:20 6.9 °C 6.1 °C 1020.5 hPa Calm     94% 0 mm CLR
01:25 6.9 °C 6 °C 1020.5 hPa Calm     94% 0 mm CLR
01:30 6.8 °C 5.9 °C 1020.5 hPa Calm     94% 0 mm CLR
01:35 6.8 °C 5.9 °C 1020.5 hPa Calm     94% 0 mm CLR
01:40 6.7 °C 5.8 °C 1020.5 hPa Calm     94% 0 mm CLR
01:45 6.7 °C 5.8 °C 1020.5 hPa Calm     94% 0 mm CLR
01:50 6.6 °C 5.7 °C 1020.5 hPa Calm     94% 0 mm CLR
01:56 6.6 °C 5.7 °C 1020.5 hPa Calm     94% 0 mm CLR
02:01 6.5 °C 5.6 °C 1020.5 hPa Calm     94% 0 mm CLR
02:06 6.5 °C 5.6 °C 1020.5 hPa Calm     94% 0 mm CLR
02:11 6.5 °C 5.6 °C 1020.5 hPa Calm     94% 0 mm CLR
02:16 6.5 °C 5.6 °C 1020.5 hPa Calm     94% 0 mm CLR
02:21 6.4 °C 5.6 °C 1020.5 hPa Calm     94% 0 mm CLR
02:26 6.4 °C 5.6 °C 1020.5 hPa Calm     94% 0 mm CLR
02:31 6.4 °C 5.5 °C 1020.5 hPa Calm     94% 0 mm CLR
02:36 6.4 °C 5.5 °C 1020.5 hPa Calm     94% 0 mm CLR
02:41 6.3 °C 5.4 °C 1020.5 hPa Calm     94% 0 mm CLR
02:46 6.2 °C 5.3 °C 1020.5 hPa Calm     94% 0 mm CLR
02:51 6.2 °C 5.3 °C 1020.5 hPa Calm     94% 0 mm CLR
02:56 6.1 °C 5.2 °C 1020.5 hPa Calm     94% 0 mm CLR
03:01 6.1 °C 5.2 °C 1020.2 hPa Calm     94% 0 mm CLR
03:06 6.1 °C 5.2 °C 1020.2 hPa Calm     94% 0 mm CLR
03:11 6.1 °C 5.2 °C 1020.2 hPa Calm     94% 0 mm CLR
03:16 6.1 °C 5.2 °C 1020.2 hPa Calm     94% 0 mm CLR
03:21 6 °C 5.1 °C 1020.2 hPa Calm     94% 0 mm CLR
03:26 6 °C 5.1 °C 1020.2 hPa Calm     94% 0 mm CLR
03:31 6.1 °C 5.2 °C 1020.2 hPa Calm     94% 0 mm CLR
03:36 6.1 °C 5.2 °C 1020.2 hPa Calm     94% 0 mm CLR
03:41 6.2 °C 5.3 °C 1020.2 hPa Calm     94% 0 mm CLR
03:46 6.2 °C 5.3 °C 1020.2 hPa Calm     94% 0 mm CLR
03:52 6.1 °C 5.2 °C 1020.2 hPa Calm     94% 0 mm CLR
03:57 6.1 °C 5.2 °C 1020.2 hPa Calm     94% 0 mm CLR
04:02 6.1 °C 5.2 °C 1020.2 hPa Calm     94% 0 mm CLR
04:07 6.1 °C 5.2 °C 1020.2 hPa Calm     94% 0 mm CLR
04:08 6.1 °C 5.2 °C 1020.2 hPa Calm     94% 0 mm CLR
04:13 6.1 °C 5.2 °C 1020.2 hPa Calm     94% 0 mm CLR
04:18 6.1 °C 5.2 °C 1020.2 hPa WNW 1.9 km/h 1.9 km/h 94% 0 mm CLR
04:24 6.1 °C 5.2 °C 1020.2 hPa Calm     94% 0 mm CLR
04:25 6.1 °C 5.2 °C 1020.2 hPa Calm     94% 0 mm CLR
04:30 6 °C 5.1 °C 1020.2 hPa Calm     94% 0 mm CLR
04:35 6 °C 5.1 °C 1020.2 hPa Calm     94% 0 mm CLR
04:40 5.9 °C 5.1 °C 1020.2 hPa Calm     94% 0 mm CLR
04:45 5.9 °C 5.1 °C 1020.2 hPa Calm     94% 0 mm CLR
04:50 5.8 °C 4.9 °C 1020.2 hPa Calm     94% 0 mm CLR
04:55 5.8 °C 4.9 °C 1020.2 hPa Calm     94% 0 mm CLR
05:00 5.8 °C 4.9 °C 1020.2 hPa Calm     94% 0 mm CLR
05:05 5.7 °C 4.8 °C 1021.2 hPa Calm     94% 0 mm CLR
05:10 5.7 °C 4.8 °C 1021.2 hPa Calm     94% 0 mm CLR
05:15 5.7 °C 4.8 °C 1021.2 hPa Calm     94% 0 mm CLR
05:20 5.6 °C 4.7 °C 1021.2 hPa Calm     94% 0 mm CLR
05:25 5.6 °C 4.7 °C 1021.2 hPa Calm     94% 0 mm CLR
05:27 5.6 °C 4.7 °C 1021.2 hPa Calm     94% 0 mm CLR
05:32 5.5 °C 4.6 °C 1021.2 hPa Calm     94% 0 mm CLR
05:37 5.4 °C 4.5 °C 1021.2 hPa Calm     94% 0 mm CLR
05:42 5.3 °C 4.4 °C 1021.2 hPa Calm     94% 0 mm CLR
05:47 5.3 °C 4.4 °C 1021.2 hPa Calm     94% 0 mm CLR
05:52 5.3 °C 4.4 °C 1021.2 hPa Calm     94% 0 mm CLR
05:57 5.3 °C 4.4 °C 1021.2 hPa Calm     94% 0 mm CLR
06:02 5.2 °C 4.3 °C 1021.6 hPa Calm     94% 0 mm CLR
06:07 5.2 °C 4.3 °C 1021.6 hPa Calm     94% 0 mm CLR
06:12 5.1 °C 4.2 °C 1021.6 hPa Calm     94% 0 mm CLR
06:17 5.1 °C 4.2 °C 1021.6 hPa Calm     94% 0 mm CLR
06:22 5.1 °C 4.2 °C 1021.6 hPa Calm     94% 0 mm CLR
06:27 5.1 °C 4.2 °C 1021.6 hPa Calm     94% 0 mm CLR
06:33 5.1 °C 4.2 °C 1021.6 hPa Calm     94% 0 mm CLR
06:38 5.1 °C 4.2 °C 1021.6 hPa Calm     94% 0 mm CLR
06:43 5.1 °C 4.2 °C 1021.6 hPa Calm     94% 0 mm CLR
06:48 5 °C 4.1 °C 1021.6 hPa Calm     94% 0 mm CLR
06:53 4.9 °C 4.1 °C 1021.6 hPa Calm     94% 0 mm CLR
06:58 4.9 °C 4.1 °C 1021.6 hPa Calm     94% 0 mm CLR
07:03 4.9 °C 4 °C 1021.9 hPa Calm     94% 0 mm CLR
07:08 4.9 °C 4 °C 1021.9 hPa Calm     94% 0 mm CLR
07:13 4.9 °C 4 °C 1021.9 hPa Calm     94% 0 mm CLR
07:18 4.9 °C 4 °C 1021.9 hPa Calm     94% 0 mm CLR
07:23 4.9 °C 4 °C 1021.9 hPa Calm     94% 0 mm CLR
07:28 4.9 °C 4.1 °C 1021.9 hPa Calm     94% 0 mm CLR
07:29 4.9 °C 4.1 °C 1021.9 hPa Calm     94% 0 mm CLR
07:34 5 °C 4.1 °C 1021.9 hPa Calm     94% 0 mm CLR
07:39 5.1 °C 4.2 °C 1021.9 hPa Calm     94% 0 mm CLR
07:44 5.2 °C 4.3 °C 1021.9 hPa Calm     94% 0 mm CLR
07:49 5.3 °C 4.4 °C 1021.9 hPa Calm     94% 0 mm CLR
07:54 5.3 °C 4.4 °C 1021.9 hPa Calm     94% 0 mm CLR
07:59 5.4 °C 4.5 °C 1021.9 hPa Calm     94% 0 mm CLR
08:04 5.5 °C 4.6 °C 1022.9 hPa Calm     94% 0 mm SCT
08:09 5.6 °C 4.7 °C 1022.9 hPa Calm     94% 0 mm SCT
08:14 5.7 °C 4.8 °C 1022.9 hPa Calm     94% 0 mm SCT
08:19 5.8 °C 4.9 °C 1022.9 hPa East 3.7 km/h   94% 0 mm SCT
08:24 6.1 °C 5 °C 1022.9 hPa Calm     93% 0 mm SCT
08:29 6.2 °C 5.2 °C 1022.9 hPa Calm     93% 0 mm SCT
08:34 6.4 °C 5.2 °C 1022.9 hPa Calm     92% 0 mm SCT
08:39 6.6 °C 5.2 °C 1022.9 hPa Calm     91% 0 mm SCT
08:44 6.7 °C 5.3 °C 1022.9 hPa Calm     91% 0 mm SCT
08:50 7 °C 5.4 °C 1022.9 hPa Calm     90% 0 mm SCT
08:55 7.3 °C 5.8 °C 1022.9 hPa Calm     90% 0 mm SCT
09:00 7.6 °C 5.6 °C 1022.9 hPa Calm   1.6 km/h 87% 0 mm SCT
09:05 7.8 °C 5.6 °C 1023.9 hPa Calm   1.6 km/h 86% 0 mm FEW
09:10 8.1 °C 5.7 °C 1023.9 hPa WNW 1.9 km/h 1.9 km/h 85% 0 mm FEW
09:15 8.2 °C 5.6 °C 1023.9 hPa Calm   3.2 km/h 84% 0 mm FEW
09:20 8.3 °C 5.8 °C 1023.9 hPa Calm   1.6 km/h 84% 0 mm FEW
09:25 8.6 °C 5.7 °C 1023.9 hPa Calm   3.2 km/h 82% 0 mm FEW
09:30 8.8 °C 5.9 °C 1023.9 hPa WSW 1.9 km/h 1.9 km/h 82% 0 mm FEW
09:35 9 °C 5.6 °C 1023.9 hPa ESE 1.6 km/h 3.2 km/h 79% 0 mm FEW
09:40 9.2 °C 5.8 °C 1023.9 hPa Calm   3.2 km/h 79% 0 mm FEW
09:45 9.7 °C 6.2 °C 1023.9 hPa Calm   1.6 km/h 79% 0 mm FEW
09:50 10.1 °C 6.4 °C 1023.9 hPa Calm   1.6 km/h 78% 0 mm FEW
09:55 10.4 °C 6.2 °C 1023.9 hPa Calm   1.6 km/h 75% 0 mm FEW
10:00 10.7 °C 5.9 °C 1023.9 hPa Calm   4.8 km/h 72% 0 mm FEW
10:05 11.3 °C 6.4 °C 1024.3 hPa Calm   3.2 km/h 72% 0 mm CLR
10:10 11.8 °C 6.3 °C 1024.3 hPa Calm   1.6 km/h 69% 0 mm CLR
10:15 12.1 °C 6.4 °C 1024.3 hPa Calm   1.6 km/h 68% 0 mm CLR
10:20 12.3 °C 5.2 °C 1024.3 hPa Calm   4.8 km/h 62% 0 mm CLR
10:25 12.2 °C 4.9 °C 1024.3 hPa Calm   8 km/h 61% 0 mm CLR
10:30 12.6 °C 5.2 °C 1024.3 hPa Calm   4.8 km/h 61% 0 mm CLR
10:35 13 °C 5.4 °C 1024.3 hPa Calm   4.8 km/h 60% 0 mm CLR
10:40 13.3 °C 4.9 °C 1024.3 hPa Calm   1.6 km/h 57% 0 mm CLR
10:45 13.2 °C 5.3 °C 1024.3 hPa SE 1.6 km/h 3.2 km/h 59% 0 mm CLR
10:50 13.1 °C 4.5 °C 1024.3 hPa SE 3.7 km/h 3.7 km/h 56% 0 mm CLR
10:55 13.1 °C 4.4 °C 1024.3 hPa Calm   4.8 km/h 56% 0 mm CLR
11:00 13.1 °C 5 °C 1024.3 hPa Calm   3.2 km/h 58% 0 mm CLR
11:05 13.3 °C 4.7 °C 1024.3 hPa Calm   3.2 km/h 56% 0 mm CLR
11:10 13.3 °C 4.7 °C 1024.3 hPa South 1.6 km/h 4.8 km/h 56% 0 mm CLR
11:15 13.3 °C 4.2 °C 1024.3 hPa Calm   3.2 km/h 54% 0 mm CLR
11:20 13.4 °C 5.1 °C 1024.3 hPa ESE 1.6 km/h 4.8 km/h 57% 0 mm CLR
11:25 13.4 °C 5 °C 1024.3 hPa Calm   4.8 km/h 57% 0 mm CLR
11:30 13.4 °C 4.6 °C 1024.3 hPa South 5.6 km/h 5.6 km/h 55% 0 mm CLR
11:35 13.5 °C 4.4 °C 1024.3 hPa South 3.2 km/h 3.2 km/h 54% 0 mm CLR
11:40 13.6 °C 5.2 °C 1024.3 hPa Calm   1.6 km/h 57% 0 mm CLR
11:41 13.7 °C 5.3 °C 1024.3 hPa ESE 1.9 km/h   57% 0 mm CLR
11:46 13.8 °C 5.2 °C 1024.3 hPa SSE 3.2 km/h 3.2 km/h 56% 0 mm CLR
11:51 13.9 °C 6.2 °C 1024.3 hPa Calm     60% 0 mm CLR
11:56 14 °C 3.7 °C 1024.3 hPa East 5.6 km/h 5.6 km/h 50% 0 mm CLR
12:01 13.9 °C 4.2 °C 1023.9 hPa West 1.6 km/h 1.6 km/h 52% 0 mm FEW
12:06 14.1 °C 4.4 °C 1023.9 hPa East 3.2 km/h 3.2 km/h 52% 0 mm FEW
12:11 14.2 °C 5.5 °C 1023.9 hPa West 1.9 km/h 1.9 km/h 56% 0 mm FEW
12:16 14.4 °C 4.4 °C 1023.9 hPa West 1.9 km/h 1.9 km/h 51% 0 mm FEW
12:22 14.6 °C 4.5 °C 1023.9 hPa South 1.9 km/h 1.9 km/h 51% 0 mm FEW
12:27 14.7 °C 4.1 °C 1023.9 hPa SSW 3.7 km/h 3.7 km/h 49% 0 mm FEW
12:32 14.7 °C 4.1 °C 1023.9 hPa East 5.6 km/h 5.6 km/h 49% 0 mm FEW
12:37 14.8 °C 4.4 °C 1023.9 hPa SE 1.9 km/h 1.9 km/h 50% 0 mm FEW
12:42 14.9 °C 4.3 °C 1023.9 hPa WSW 3.7 km/h 3.7 km/h 49% 0 mm FEW
12:47 15 °C 3.8 °C 1023.9 hPa SW 1.9 km/h 1.9 km/h 47% 0 mm FEW
12:52 15.1 °C 3.9 °C 1023.9 hPa East 1.9 km/h 1.9 km/h 47% 0 mm FEW
12:57 15.4 °C 4.2 °C 1023.9 hPa SSW 6.6 km/h 6.6 km/h 47% 0 mm FEW
13:02 15.6 °C 4 °C 1022.9 hPa North 1.9 km/h 1.9 km/h 46% 0 mm FEW
13:07 15.8 °C 4.2 °C 1022.9 hPa WSW 1.9 km/h 1.9 km/h 46% 0 mm FEW
13:12 16.1 °C 4.7 °C 1022.9 hPa West 1.9 km/h 1.9 km/h 47% 0 mm FEW
13:17 16.3 °C 4.9 °C 1022.9 hPa ENE 1.9 km/h 1.9 km/h 47% 0 mm FEW
13:22 16.3 °C 4.7 °C 1022.9 hPa WSW 3.7 km/h 3.7 km/h 46% 0 mm FEW
13:27 16.2 °C 3.9 °C 1022.9 hPa WNW 3.7 km/h 3.7 km/h 44% 0 mm FEW
13:32 16.2 °C 3.9 °C 1022.9 hPa SW 5.6 km/h 5.6 km/h 44% 0 mm FEW
13:37 16.2 °C 4.8 °C 1022.9 hPa West 1.9 km/h 1.9 km/h 47% 0 mm FEW
13:42 16.2 °C 4.6 °C 1022.9 hPa WSW 1.9 km/h 1.9 km/h 46% 0 mm FEW
13:47 16.1 °C 4.5 °C 1022.9 hPa East 1.9 km/h 1.9 km/h 46% 0 mm FEW
13:48 16.1 °C 4.2 °C 1022.9 hPa East 1.9 km/h 1.9 km/h 45% 0 mm FEW
13:53 16.1 °C 5.1 °C 1022.9 hPa Calm     48% 0 mm FEW
13:58 16.2 °C 4.6 °C 1022.9 hPa South 3.2 km/h 3.2 km/h 46% 0 mm FEW
14:03 16.1 °C 4.5 °C 1022.6 hPa Calm     46% 0 mm FEW
14:08 16.2 °C 5.1 °C 1022.6 hPa Calm     48% 0 mm FEW
14:13 16.3 °C 4.9 °C 1022.6 hPa West 1.9 km/h 1.9 km/h 47% 0 mm FEW
14:18 16.4 °C 4.7 °C 1022.6 hPa East 1.9 km/h 1.9 km/h 46% 0 mm FEW
14:23 16.4 °C 4.8 °C 1022.6 hPa SSW 3.7 km/h   46% 0 mm FEW
14:28 16.3 °C 5.6 °C 1022.6 hPa WNW 3.7 km/h 3.7 km/h 49% 0 mm FEW
14:33 16.3 °C 5.2 °C 1022.6 hPa WSW 3.7 km/h 3.7 km/h 48% 0 mm FEW
14:38 16.2 °C 4.8 °C 1022.6 hPa NW 3.7 km/h   47% 0 mm FEW
14:44 16.2 °C 5.2 °C 1022.6 hPa West 1.6 km/h 1.6 km/h 48% 0 mm FEW
14:49 16.2 °C 6 °C 1022.6 hPa WNW 1.9 km/h 1.9 km/h 51% 0 mm FEW
14:54 16.1 °C 4.8 °C 1022.6 hPa WNW 1.9 km/h 1.9 km/h 47% 0 mm FEW
14:59 16 °C 5 °C 1022.6 hPa North 3.7 km/h 3.7 km/h 48% 0 mm FEW
15:04 15.9 °C 4.9 °C 1022.2 hPa Calm     48% 0 mm SCT
15:09 15.8 °C 4.8 °C 1022.2 hPa Calm     48% 0 mm SCT
15:14 15.8 °C 5.1 °C 1022.2 hPa South 1.9 km/h   49% 0 mm SCT
15:19 15.7 °C 5 °C 1022.2 hPa ESE 5 km/h 5 km/h 49% 0 mm SCT
15:24 15.6 °C 4.3 °C 1022.2 hPa SE 3.7 km/h 3.7 km/h 47% 0 mm SCT
15:29 15.5 °C 4.5 °C 1022.2 hPa NW 1.9 km/h 1.9 km/h 48% 0 mm SCT
15:34 15.4 °C 5.1 °C 1022.2 hPa South 3.7 km/h 3.7 km/h 50% 0 mm SCT
15:39 15.4 °C 5 °C 1022.2 hPa ESE 1.9 km/h 1.9 km/h 50% 0 mm SCT
15:44 15.4 °C 5.3 °C 1022.2 hPa NNE 1.9 km/h 1.9 km/h 51% 0 mm SCT
15:49 15.4 °C 5.3 °C 1022.2 hPa South 1.9 km/h 1.9 km/h 51% 0 mm SCT
15:54 15.3 °C 4.9 °C 1022.2 hPa SW 1.9 km/h 1.9 km/h 50% 0 mm SCT
15:59 15.3 °C 4.9 °C 1022.2 hPa ESE 1.6 km/h   50% 0 mm SCT
16:04 15.1 °C 6.1 °C 1022.6 hPa Calm     55% 0 mm BKN
16:09 14.9 °C 5.1 °C 1022.6 hPa Calm   0.5 km/h 52% 0 mm BKN
16:11 14.8 °C 5.3 °C 1022.6 hPa West 1.6 km/h 1.6 km/h 53% 0 mm BKN
16:17 14.7 °C 6 °C 1022.6 hPa Calm     56% 0 mm BKN
16:22 14.4 °C 5.2 °C 1022.6 hPa West 1.9 km/h 1.9 km/h 54% 0 mm BKN
16:24 14.4 °C 5.5 °C 1022.6 hPa Calm     55% 0 mm BKN
16:29 14.3 °C 5.2 °C 1022.6 hPa West 1.9 km/h 1.9 km/h 54% 0 mm BKN
16:34 14.2 °C 5.1 °C 1022.6 hPa Calm     54% 0 mm BKN
16:39 14.1 °C 4.9 °C 1022.6 hPa Calm     54% 0 mm BKN
16:44 13.9 °C 4.7 °C 1022.6 hPa NW 1.9 km/h 1.9 km/h 54% 0 mm BKN
16:49 13.7 °C 5.1 °C 1022.6 hPa NNW 1.9 km/h 1.9 km/h 56% 0 mm BKN
16:54 13.5 °C 5.2 °C 1022.6 hPa Calm     57% 0 mm BKN
16:59 13.4 °C 5.3 °C 1022.6 hPa Calm     58% 0 mm BKN
17:04 13.2 °C 5.3 °C 1022.9 hPa Calm     59% 0 mm BKN
17:09 12.9 °C 5.3 °C 1022.9 hPa Calm     60% 0 mm BKN
17:14 12.8 °C 5.4 °C 1022.9 hPa Calm     61% 0 mm BKN
17:19 12.7 °C 5.6 °C 1022.9 hPa Calm     62% 0 mm BKN
17:24 12.4 °C 5.3 °C 1022.9 hPa Calm     62% 0 mm BKN
17:29 12.2 °C 5.2 °C 1022.9 hPa Calm     62% 0 mm BKN
17:31 12.2 °C 4.9 °C 1022.9 hPa Calm     61% 0 mm BKN
17:36 11.9 °C 5.1 °C 1022.9 hPa Calm     63% 0 mm BKN
17:41 11.7 °C 4.9 °C 1022.9 hPa Calm     63% 0 mm BKN
17:46 11.5 °C 5.2 °C 1022.9 hPa Calm     65% 0 mm BKN
17:51 11.3 °C 4.9 °C 1022.9 hPa Calm     65% 0 mm BKN
17:56 11.1 °C 4.9 °C 1022.9 hPa Calm     66% 0 mm BKN
18:01 10.8 °C 5.4 °C 1022.9 hPa Calm     69% 0 mm BKN
18:06 10.7 °C 5.6 °C 1022.9 hPa Calm     71% 0 mm BKN
18:11 10.4 °C 5 °C 1022.9 hPa Calm     69% 0 mm BKN
18:16 10.2 °C 5.2 °C 1022.9 hPa Calm     71% 0 mm BKN
18:21 10.1 °C 5.2 °C 1022.9 hPa Calm     72% 0 mm BKN
18:26 9.9 °C 5.3 °C 1022.9 hPa Calm     73% 0 mm BKN
18:31 9.8 °C 4.9 °C 1022.9 hPa Calm     72% 0 mm BKN
18:36 9.8 °C 4.8 °C 1022.9 hPa Calm     71% 0 mm BKN
18:41 9.7 °C 4.7 °C 1022.9 hPa Calm     71% 0 mm BKN
18:46 9.7 °C 4.7 °C 1022.9 hPa Calm     71% 0 mm BKN
18:51 9.6 °C 4.6 °C 1022.9 hPa Calm     71% 0 mm BKN
18:57 9.4 °C 4.4 °C 1022.9 hPa Calm     71% 0 mm BKN
19:02 9.3 °C 4.5 °C 1023.6 hPa Calm     72% 0 mm FEW
19:07 9.1 °C 4.5 °C 1023.6 hPa Calm     73% 0 mm FEW
19:12 9 °C 4.4 °C 1023.6 hPa Calm     73% 0 mm FEW
19:17 8.9 °C 4.3 °C 1023.6 hPa Calm     73% 0 mm FEW
19:22 8.8 °C 4.2 °C 1023.6 hPa Calm     73% 0 mm FEW
19:27 8.7 °C 4.3 °C 1023.6 hPa Calm     74% 0 mm FEW
19:32 8.6 °C 4.4 °C 1023.6 hPa Calm     75% 0 mm FEW
19:37 8.4 °C 4.3 °C 1023.6 hPa Calm     75% 0 mm FEW
19:42 8.3 °C 4.2 °C 1023.6 hPa Calm     75% 0 mm FEW
19:47 8.3 °C 4.1 °C 1023.6 hPa Calm     75% 0 mm FEW
19:52 8.2 °C 3.8 °C 1023.6 hPa Calm     74% 0 mm FEW
19:57 8.1 °C 3.9 °C 1023.6 hPa Calm     75% 0 mm FEW
20:02 8.1 °C 3.9 °C 1023.9 hPa Calm     75% 0 mm CLR
20:07 8.1 °C 3.5 °C 1023.9 hPa Calm     73% 0 mm CLR
20:12 8.2 °C 3.8 °C 1023.9 hPa Calm     74% 0 mm CLR
20:17 8.2 °C 3.8 °C 1023.9 hPa Calm     74% 0 mm CLR
20:22 8.1 °C 3.4 °C 1023.9 hPa West 1.9 km/h   72% 0 mm CLR
20:27 8.2 °C 3.6 °C 1023.9 hPa Calm     73% 0 mm CLR
20:32 8.2 °C 3.6 °C 1023.9 hPa Calm     73% 0 mm CLR
20:37 8.1 °C 3.8 °C 1023.9 hPa Calm     74% 0 mm CLR
20:42 8.1 °C 3.5 °C 1023.9 hPa Calm     73% 0 mm CLR
20:47 8 °C 3.8 °C 1023.9 hPa Calm     75% 0 mm CLR
20:48 7.9 °C 3.8 °C 1023.9 hPa Calm     75% 0 mm CLR
20:53 7.8 °C 4 °C 1023.9 hPa Calm     77% 0 mm CLR
20:58 7.6 °C 3.8 °C 1023.9 hPa Calm     77% 0 mm CLR
21:03 7.4 °C 3.8 °C 1024.3 hPa Calm     78% 0 mm CLR
21:08 7.3 °C 3.7 °C 1024.3 hPa Calm     78% 0 mm CLR
21:10 7.2 °C 3.8 °C 1024.3 hPa Calm     79% 0 mm CLR
21:15 7.1 °C 3.7 °C 1024.3 hPa Calm     79% 0 mm CLR
21:20 6.9 °C 3.7 °C 1024.3 hPa Calm     80% 0 mm CLR
21:25 6.8 °C 3.7 °C 1024.3 hPa Calm     81% 0 mm CLR
21:30 6.7 °C 3.6 °C 1024.3 hPa Calm     81% 0 mm CLR
21:35 6.5 °C 3.5 °C 1024.3 hPa Calm     81% 0 mm CLR
21:40 6.4 °C 3.4 °C 1024.3 hPa Calm     81% 0 mm CLR
21:45 6.3 °C 3.3 °C 1024.3 hPa Calm     81% 0 mm CLR
21:50 6.3 °C 3.4 °C 1024.3 hPa Calm     82% 0 mm CLR
21:55 6.2 °C 3.4 °C 1024.3 hPa Calm     82% 0 mm CLR
22:00 6.2 °C 3.3 °C 1024.3 hPa Calm     82% 0 mm CLR
22:05 6.1 °C 3.3 °C 1024.9 hPa Calm     82% 0 mm CLR
22:11 6.1 °C 3.4 °C 1024.9 hPa Calm     83% 0 mm CLR
22:16 5.9 °C 3.3 °C 1024.9 hPa Calm     83% 0 mm CLR
22:22 5.8 °C 3.2 °C 1024.9 hPa Calm     83% 0 mm CLR
22:23 5.8 °C 3.3 °C 1024.9 hPa Calm     84% 0 mm CLR
22:24 5.8 °C 3.3 °C 1024.9 hPa Calm     84% 0 mm CLR
22:28 5.7 °C 3.2 °C 1024.9 hPa Calm     84% 0 mm CLR
22:29 5.8 °C 3.3 °C 1024.9 hPa Calm     84% 0 mm CLR
22:33 5.7 °C 3.2 °C 1024.9 hPa Calm     84% 0 mm CLR
22:38 5.6 °C 3.3 °C 1024.9 hPa Calm     85% 0 mm CLR
22:43 5.5 °C 3.2 °C 1024.9 hPa Calm     85% 0 mm CLR
22:48 5.5 °C 3.2 °C 1024.9 hPa Calm     85% 0 mm CLR
22:53 5.4 °C 3.2 °C 1024.9 hPa Calm     86% 0 mm CLR
22:59 5.3 °C 3.2 °C 1024.9 hPa Calm     86% 0 mm CLR
23:04 5.3 °C 3.1 °C 1024.9 hPa Calm     86% 0 mm CLR
23:09 5.2 °C 3.2 °C 1024.9 hPa Calm     87% 0 mm CLR
23:14 5.1 °C 3.1 °C 1024.9 hPa Calm     87% 0 mm CLR
23:19 5.1 °C 3.1 °C 1024.9 hPa Calm     87% 0 mm CLR
23:24 5.1 °C 3.1 °C 1024.9 hPa Calm     87% 0 mm CLR
23:29 4.9 °C 2.9 °C 1024.9 hPa Calm     87% 0 mm CLR
23:34 4.9 °C 3.1 °C 1024.9 hPa Calm     88% 0 mm CLR
23:39 4.9 °C 3.1 °C 1024.9 hPa Calm     88% 0 mm CLR
23:40 4.9 °C 3.1 °C 1024.9 hPa Calm     88% 0 mm CLR
23:45 4.8 °C 3 °C 1024.9 hPa Calm     88% 0 mm CLR
23:50 4.8 °C 2.9 °C 1024.9 hPa Calm     88% 0 mm CLR
23:55 4.8 °C 3.1 °C 1024.9 hPa Calm     89% 0 mm CLR
Piedmont Bend
Compliments of Weather Underground - 2 mb